Time;durP1;ratioP1;P1;durP2;ratioP2;P2;SDS_P1;SDS_P2;PMS_P1;PMS_P2;Temp;Humidity;BMP_temperature;BMP_pressure;BME280_temperature;BME280_humidity;BME280_pressure;Samples;Min_cycle;Max_cycle;Signal;HPM_P1;HPM_P2
2021/11/26 00:00:25;;;;;;;14.03;10.27;;;;;;;;;;5073578;28;20025;-70
2021/11/26 00:02:51;;;;;;;12.53;9.50;;;;;;;;;;5115698;27;20028;-70
2021/11/26 00:05:16;;;;;;;12.43;9.63;;;;;;;;;;5081039;28;20031;-70
2021/11/26 00:07:41;;;;;;;13.47;9.53;;;;;;;;;;5070017;28;20078;-70
2021/11/26 00:10:07;;;;;;;11.97;9.03;;;;;;;;;;5078676;28;20044;-69
2021/11/26 00:12:32;;;;;;;12.67;9.43;;;;;;;;;;5065409;28;20028;-70
2021/11/26 00:17:26;;;;;;;13.07;9.37;;;;;;;;;;5084509;28;20582;-70
2021/11/26 00:19:52;;;;;;;14.00;10.10;;;;;;;;;;5078616;28;20036;-71
2021/11/26 00:22:17;;;;;;;12.93;9.73;;;;;;;;;;5077470;28;20032;-71
2021/11/26 00:24:43;;;;;;;12.50;9.57;;;;;;;;;;5074191;28;20492;-71
2021/11/26 00:27:08;;;;;;;14.53;10.83;;;;;;;;;;5074299;28;20020;-71
2021/11/26 00:29:34;;;;;;;14.07;10.60;;;;;;;;;;5071720;28;20457;-71
2021/11/26 00:31:59;;;;;;;13.37;10.17;;;;;;;;;;5076556;28;20510;-71
2021/11/26 00:34:25;;;;;;;13.90;9.93;;;;;;;;;;5086666;28;20460;-71
2021/11/26 00:36:50;;;;;;;14.60;11.17;;;;;;;;;;5089487;28;20444;-71
2021/11/26 00:39:15;;;;;;;15.47;10.83;;;;;;;;;;5085816;28;20141;-71
2021/11/26 00:41:41;;;;;;;16.30;10.93;;;;;;;;;;5082561;28;20186;-71
2021/11/26 00:44:06;;;;;;;16.70;11.53;;;;;;;;;;5075606;28;20055;-71
2021/11/26 00:46:32;;;;;;;16.17;10.93;;;;;;;;;;5080647;28;20453;-71
2021/11/26 00:48:58;;;;;;;13.27;10.17;;;;;;;;;;5086149;28;20059;-71
2021/11/26 00:51:23;;;;;;;15.77;11.37;;;;;;;;;;5072813;28;20056;-71
2021/11/26 00:53:49;;;;;;;16.77;12.07;;;;;;;;;;5074044;28;20360;-71
2021/11/26 00:56:14;;;;;;;18.70;12.17;;;;;;;;;;5072214;28;20024;-71
2021/11/26 00:58:39;;;;;;;19.23;13.07;;;;;;;;;;5095785;28;20032;-71
2021/11/26 01:01:05;;;;;;;19.60;12.47;;;;;;;;;;5068777;28;20025;-71
2021/11/26 01:03:30;;;;;;;17.03;11.93;;;;;;;;;;5098361;28;20390;-71
2021/11/26 01:05:55;;;;;;;19.30;13.07;;;;;;;;;;5085820;28;20067;-71
2021/11/26 01:08:21;;;;;;;19.53;12.77;;;;;;;;;;5091434;28;20440;-71
2021/11/26 01:10:47;;;;;;;18.47;13.13;;;;;;;;;;5088209;28;20511;-71
2021/11/26 01:13:12;;;;;;;20.40;13.80;;;;;;;;;;5068032;28;20131;-71
2021/11/26 01:15:39;;;;;;;17.57;11.90;;;;;;;;;;5086165;28;20464;-71
2021/11/26 01:18:05;;;;;;;19.10;12.87;;;;;;;;;;5089418;28;20444;-71
2021/11/26 01:20:31;;;;;;;15.93;12.13;;;;;;;;;;5072024;28;20480;-71
2021/11/26 01:22:57;;;;;;;17.20;12.03;;;;;;;;;;5072292;28;20032;-71
2021/11/26 01:25:22;;;;;;;19.93;13.40;;;;;;;;;;5074501;28;20036;-71
2021/11/26 01:27:48;;;;;;;18.60;13.00;;;;;;;;;;5074938;28;20073;-71
2021/11/26 01:30:22;;;;;;;18.47;13.33;;;;;;;;;;5075082;28;20020;-71
2021/11/26 01:32:48;;;;;;;19.10;13.48;;;;;;;;;;5078944;28;20747;-72
2021/11/26 01:35:13;;;;;;;17.90;12.33;;;;;;;;;;5076762;28;20916;-72
2021/11/26 01:37:39;;;;;;;19.57;13.70;;;;;;;;;;5076559;28;20066;-71
2021/11/26 01:40:05;;;;;;;17.50;12.33;;;;;;;;;;5082640;28;20410;-71
2021/11/26 01:42:30;;;;;;;18.80;13.47;;;;;;;;;;5085054;28;20035;-71
2021/11/26 01:44:55;;;;;;;21.83;14.10;;;;;;;;;;5072625;28;20392;-71
2021/11/26 01:47:21;;;;;;;20.27;13.67;;;;;;;;;;5070835;28;20384;-71
2021/11/26 01:49:46;;;;;;;17.07;12.60;;;;;;;;;;5089768;28;20432;-71
2021/11/26 01:52:11;;;;;;;20.03;14.10;;;;;;;;;;5073297;28;20452;-71
2021/11/26 01:54:37;;;;;;;17.80;13.43;;;;;;;;;;5076670;28;20477;-71
2021/11/26 01:57:02;;;;;;;18.13;13.37;;;;;;;;;;5079982;28;20341;-71
2021/11/26 01:59:27;;;;;;;19.17;13.53;;;;;;;;;;5066124;28;20033;-71
2021/11/26 02:01:53;;;;;;;21.60;13.90;;;;;;;;;;5083035;28;20016;-71
2021/11/26 02:04:18;;;;;;;20.70;14.07;;;;;;;;;;5074647;28;20489;-71
2021/11/26 02:06:43;;;;;;;19.70;13.80;;;;;;;;;;5073365;28;20386;-71
2021/11/26 02:09:09;;;;;;;23.37;15.73;;;;;;;;;;5090664;28;20043;-72
2021/11/26 02:11:34;;;;;;;21.07;13.60;;;;;;;;;;5084231;28;20052;-73
2021/11/26 02:13:59;;;;;;;20.40;13.10;;;;;;;;;;5088474;28;20465;-72
2021/11/26 02:16:25;;;;;;;19.43;14.20;;;;;;;;;;5066658;28;20538;-71
2021/11/26 02:18:50;;;;;;;18.60;13.57;;;;;;;;;;5075576;28;20063;-72
2021/11/26 02:21:17;;;;;;;18.30;13.50;;;;;;;;;;5087579;28;20020;-72
2021/11/26 02:23:42;;;;;;;19.87;13.93;;;;;;;;;;5081782;28;20020;-72
2021/11/26 02:26:07;;;;;;;19.67;13.40;;;;;;;;;;5085755;28;20347;-72
2021/11/26 02:28:33;;;;;;;21.23;14.80;;;;;;;;;;5077353;28;20028;-72
2021/11/26 02:30:58;;;;;;;22.53;14.47;;;;;;;;;;5080202;28;20103;-72
2021/11/26 02:33:23;;;;;;;23.80;15.97;;;;;;;;;;5086089;28;20488;-71
2021/11/26 02:35:51;;;;;;;22.80;14.63;;;;;;;;;;5093028;28;20119;-72
2021/11/26 02:38:17;;;;;;;21.70;14.17;;;;;;;;;;5092168;28;20024;-72
2021/11/26 02:40:43;;;;;;;22.57;15.03;;;;;;;;;;5091362;28;20040;-72
2021/11/26 02:43:09;;;;;;;19.90;14.07;;;;;;;;;;5093451;28;20279;-72
2021/11/26 02:45:34;;;;;;;19.60;13.93;;;;;;;;;;5079121;28;20029;-71
2021/11/26 02:48:00;;;;;;;19.47;13.67;;;;;;;;;;5081673;28;20392;-71
2021/11/26 02:50:26;;;;;;;20.60;14.00;;;;;;;;;;5079832;28;20031;-71
2021/11/26 02:52:52;;;;;;;18.47;13.23;;;;;;;;;;5089646;28;20038;-71
2021/11/26 02:55:19;;;;;;;21.67;14.27;;;;;;;;;;5087208;28;20457;-71
2021/11/26 02:57:44;;;;;;;17.97;13.33;;;;;;;;;;5089342;28;20019;-72
2021/11/26 03:00:10;;;;;;;18.83;13.13;;;;;;;;;;5086901;28;20016;-71
2021/11/26 03:02:36;;;;;;;19.30;13.90;;;;;;;;;;5085470;28;20024;-71
2021/11/26 03:05:01;;;;;;;20.03;13.77;;;;;;;;;;5078471;28;20475;-71
2021/11/26 03:07:26;;;;;;;19.57;13.87;;;;;;;;;;5087775;28;20111;-72
2021/11/26 03:09:52;;;;;;;19.63;14.27;;;;;;;;;;5083200;28;20028;-72
2021/11/26 03:12:17;;;;;;;18.10;12.90;;;;;;;;;;5083598;28;20024;-72
2021/11/26 03:14:43;;;;;;;20.63;13.40;;;;;;;;;;5080494;28;20020;-72
2021/11/26 03:17:08;;;;;;;18.30;13.20;;;;;;;;;;5080998;28;20027;-72
2021/11/26 03:19:33;;;;;;;20.67;13.73;;;;;;;;;;5079508;28;20116;-72
2021/11/26 03:21:59;;;;;;;19.23;13.27;;;;;;;;;;5081315;28;20403;-72
2021/11/26 03:24:24;;;;;;;19.67;13.30;;;;;;;;;;5065468;28;20028;-72
2021/11/26 03:26:49;;;;;;;17.47;13.57;;;;;;;;;;5081461;28;20379;-72
2021/11/26 03:29:15;;;;;;;21.33;14.07;;;;;;;;;;5099234;28;21444;-72
2021/11/26 03:31:40;;;;;;;19.90;13.93;;;;;;;;;;5090465;28;20595;-72
2021/11/26 03:34:06;;;;;;;21.37;14.10;;;;;;;;;;5092089;28;20028;-72
2021/11/26 03:36:31;;;;;;;22.23;14.83;;;;;;;;;;5089327;28;20024;-72
2021/11/26 03:38:56;;;;;;;18.60;13.57;;;;;;;;;;5094028;28;20020;-72
2021/11/26 03:41:22;;;;;;;20.87;14.60;;;;;;;;;;5077569;28;20034;-72
2021/11/26 03:43:47;;;;;;;19.37;14.17;;;;;;;;;;5089191;28;20020;-71
2021/11/26 03:46:13;;;;;;;21.53;14.07;;;;;;;;;;5077756;28;20017;-71
2021/11/26 03:48:38;;;;;;;21.73;15.03;;;;;;;;;;5077304;28;20480;-71
2021/11/26 03:51:04;;;;;;;19.17;13.37;;;;;;;;;;5080411;28;20016;-71
2021/11/26 03:53:29;;;;;;;20.33;14.30;;;;;;;;;;5072685;28;20077;-71
2021/11/26 03:55:55;;;;;;;20.50;14.60;;;;;;;;;;5074596;28;20024;-72
2021/11/26 03:58:20;;;;;;;19.47;14.00;;;;;;;;;;5073934;28;20044;-70
2021/11/26 04:00:45;;;;;;;19.47;14.03;;;;;;;;;;5087109;28;20051;-70
2021/11/26 04:03:11;;;;;;;19.27;13.90;;;;;;;;;;5080196;28;20055;-72
2021/11/26 04:05:36;;;;;;;16.97;13.17;;;;;;;;;;5078785;28;20029;-70
2021/11/26 04:08:01;;;;;;;20.57;14.87;;;;;;;;;;5085578;28;20373;-70
2021/11/26 04:10:27;;;;;;;19.97;13.80;;;;;;;;;;5075535;28;20481;-70
2021/11/26 04:12:53;;;;;;;19.50;13.83;;;;;;;;;;5075378;28;20036;-70
2021/11/26 04:15:19;;;;;;;18.83;13.60;;;;;;;;;;5083452;28;20036;-70
2021/11/26 04:17:47;;;;;;;21.10;14.13;;;;;;;;;;5077937;28;20020;-70
2021/11/26 04:20:12;;;;;;;20.53;12.90;;;;;;;;;;5083449;28;20499;-70
2021/11/26 04:22:38;;;;;;;20.37;13.87;;;;;;;;;;5079219;28;20016;-71
2021/11/26 04:25:03;;;;;;;22.17;15.23;;;;;;;;;;5083049;28;20025;-70
2021/11/26 04:27:29;;;;;;;19.37;13.50;;;;;;;;;;5083361;28;20217;-70
2021/11/26 04:29:54;;;;;;;20.63;13.93;;;;;;;;;;5077371;28;20024;-70
2021/11/26 04:32:20;;;;;;;18.97;14.43;;;;;;;;;;5079407;28;20097;-71
2021/11/26 04:34:45;;;;;;;20.73;13.93;;;;;;;;;;5075786;28;20025;-71
2021/11/26 04:37:10;;;;;;;18.50;14.30;;;;;;;;;;5081987;28;20075;-71
2021/11/26 04:39:36;;;;;;;20.70;14.53;;;;;;;;;;5076594;28;20023;-71
2021/11/26 04:42:01;;;;;;;21.17;15.13;;;;;;;;;;5074281;28;20067;-71
2021/11/26 04:44:26;;;;;;;19.33;13.73;;;;;;;;;;5071262;28;20480;-71
2021/11/26 04:46:52;;;;;;;24.07;15.40;;;;;;;;;;5082650;28;20035;-70
2021/11/26 04:49:17;;;;;;;21.77;14.80;;;;;;;;;;5086400;28;20020;-71
2021/11/26 04:51:42;;;;;;;20.53;14.53;;;;;;;;;;5077291;28;20021;-71
2021/11/26 04:54:08;;;;;;;22.53;14.60;;;;;;;;;;5110883;27;20032;-71
2021/11/26 04:56:33;;;;;;;19.40;14.43;;;;;;;;;;5087804;28;20376;-72
2021/11/26 04:58:59;;;;;;;20.37;14.10;;;;;;;;;;5088300;28;20460;-71
2021/11/26 05:01:24;;;;;;;22.70;15.03;;;;;;;;;;5078359;28;20024;-71
2021/11/26 05:03:53;;;;;;;20.03;15.10;;;;;;;;;;5082293;28;20035;-71
2021/11/26 05:06:18;;;;;;;23.97;14.97;;;;;;;;;;5078888;28;20069;-71
2021/11/26 05:08:44;;;;;;;21.47;13.93;;;;;;;;;;5081808;28;20012;-71
2021/11/26 05:11:09;;;;;;;20.00;13.87;;;;;;;;;;5075885;28;20016;-71
2021/11/26 05:13:40;;;;;;;20.70;14.00;;;;;;;;;;5079860;28;20028;-71
2021/11/26 05:16:06;;;;;;;19.37;13.87;;;;;;;;;;5071681;28;20024;-72
2021/11/26 05:18:31;;;;;;;21.50;14.37;;;;;;;;;;5087702;28;20016;-71
2021/11/26 05:20:56;;;;;;;22.03;15.03;;;;;;;;;;5079201;28;20020;-71
2021/11/26 05:23:23;;;;;;;19.00;14.00;;;;;;;;;;5080205;28;20093;-72
2021/11/26 05:25:48;;;;;;;18.40;13.60;;;;;;;;;;5079822;28;20020;-72
2021/11/26 05:28:13;;;;;;;21.87;15.00;;;;;;;;;;5083294;28;20424;-71
2021/11/26 05:30:39;;;;;;;18.57;13.43;;;;;;;;;;5067910;28;20032;-71
2021/11/26 05:33:04;;;;;;;21.37;13.90;;;;;;;;;;5078133;28;20496;-71
2021/11/26 05:35:31;;;;;;;21.53;14.63;;;;;;;;;;5075468;28;20088;-72
2021/11/26 05:37:56;;;;;;;19.60;13.27;;;;;;;;;;5071648;28;20473;-72
2021/11/26 05:40:21;;;;;;;20.50;13.77;;;;;;;;;;5082939;28;20035;-72
2021/11/26 05:42:47;;;;;;;21.13;14.00;;;;;;;;;;5071385;28;20112;-71
2021/11/26 05:45:13;;;;;;;20.20;13.13;;;;;;;;;;5070438;28;20066;-72
2021/11/26 05:47:38;;;;;;;19.20;12.80;;;;;;;;;;5085941;28;20102;-71
2021/11/26 05:50:06;;;;;;;20.80;13.33;;;;;;;;;;5079375;28;20048;-72
2021/11/26 05:52:32;;;;;;;19.03;12.73;;;;;;;;;;5080561;28;20115;-72
2021/11/26 05:54:57;;;;;;;17.07;13.47;;;;;;;;;;5078614;28;20108;-72
2021/11/26 05:57:22;;;;;;;20.00;14.07;;;;;;;;;;5084025;27;20031;-72
2021/11/26 05:59:48;;;;;;;18.53;13.50;;;;;;;;;;5089786;28;20043;-72
2021/11/26 06:02:13;;;;;;;17.97;13.00;;;;;;;;;;5089375;28;20126;-72
2021/11/26 06:04:38;;;;;;;18.93;13.17;;;;;;;;;;5116158;28;20023;-72
2021/11/26 06:07:04;;;;;;;20.43;12.97;;;;;;;;;;5109590;28;20619;-72
2021/11/26 06:09:29;;;;;;;19.60;13.37;;;;;;;;;;5089765;28;20043;-72
2021/11/26 06:11:54;;;;;;;18.50;13.23;;;;;;;;;;5091945;28;20490;-72
2021/11/26 06:14:20;;;;;;;21.67;13.20;;;;;;;;;;5077740;28;20460;-72
2021/11/26 06:16:45;;;;;;;17.57;13.07;;;;;;;;;;5080092;28;20583;-72
2021/11/26 06:19:10;;;;;;;21.37;13.87;;;;;;;;;;5081030;28;20028;-72
2021/11/26 06:21:36;;;;;;;20.23;13.03;;;;;;;;;;5095736;28;20036;-72
2021/11/26 06:24:01;;;;;;;18.97;12.90;;;;;;;;;;5081641;28;20054;-72
2021/11/26 06:26:27;;;;;;;19.63;13.33;;;;;;;;;;5081453;28;20508;-73
2021/11/26 06:28:52;;;;;;;19.40;13.33;;;;;;;;;;5091266;28;20368;-72
2021/11/26 06:31:18;;;;;;;19.60;13.07;;;;;;;;;;5082012;28;20383;-72
2021/11/26 06:33:43;;;;;;;18.57;12.77;;;;;;;;;;5078683;28;20469;-71
2021/11/26 06:36:10;;;;;;;18.07;13.13;;;;;;;;;;5078126;28;20067;-73
2021/11/26 06:38:35;;;;;;;20.10;13.70;;;;;;;;;;5063799;28;20493;-72
2021/11/26 06:41:00;;;;;;;19.20;13.47;;;;;;;;;;5083587;28;20032;-72
2021/11/26 06:43:26;;;;;;;18.40;13.10;;;;;;;;;;5082064;28;20032;-72
2021/11/26 06:45:52;;;;;;;19.67;13.20;;;;;;;;;;5096561;28;20036;-73
2021/11/26 06:48:17;;;;;;;23.40;14.00;;;;;;;;;;5081206;28;20421;-72
2021/11/26 06:50:43;;;;;;;21.47;13.43;;;;;;;;;;5092607;28;20524;-73
2021/11/26 06:53:08;;;;;;;18.83;12.33;;;;;;;;;;5087350;28;20028;-73
2021/11/26 06:55:33;;;;;;;22.10;13.50;;;;;;;;;;5081978;28;20020;-72
2021/11/26 06:57:59;;;;;;;17.83;12.87;;;;;;;;;;5081897;28;20391;-73
2021/11/26 07:00:24;;;;;;;19.00;12.63;;;;;;;;;;5079013;28;20043;-72
2021/11/26 07:02:50;;;;;;;19.13;13.40;;;;;;;;;;5079756;28;20429;-72
2021/11/26 07:05:15;;;;;;;18.77;13.13;;;;;;;;;;5067322;28;20134;-72
2021/11/26 07:07:41;;;;;;;20.50;13.03;;;;;;;;;;5078672;28;20522;-73
2021/11/26 07:10:08;;;;;;;19.80;13.47;;;;;;;;;;5076526;28;20059;-72
2021/11/26 07:12:34;;;;;;;20.03;13.07;;;;;;;;;;5077942;28;20025;-72
2021/11/26 07:15:00;;;;;;;18.40;12.93;;;;;;;;;;5083754;28;20039;-72
2021/11/26 07:17:25;;;;;;;17.43;12.00;;;;;;;;;;5088446;28;20494;-72
2021/11/26 07:19:50;;;;;;;15.93;12.50;;;;;;;;;;5094191;28;20036;-72
2021/11/26 07:22:17;;;;;;;18.20;13.00;;;;;;;;;;5083563;28;20025;-72
2021/11/26 07:24:42;;;;;;;17.37;13.33;;;;;;;;;;5081737;28;20031;-72
2021/11/26 07:27:07;;;;;;;16.13;12.30;;;;;;;;;;5093722;28;20020;-72
2021/11/26 07:29:33;;;;;;;16.97;11.80;;;;;;;;;;5093306;28;20028;-72
2021/11/26 07:31:58;;;;;;;18.93;12.53;;;;;;;;;;5087655;28;20048;-72
2021/11/26 07:34:24;;;;;;;17.67;12.93;;;;;;;;;;5081477;28;20507;-72
2021/11/26 07:36:49;;;;;;;17.77;11.90;;;;;;;;;;5081398;28;20028;-71
2021/11/26 07:39:14;;;;;;;18.97;12.43;;;;;;;;;;5094094;28;20097;-71
2021/11/26 07:41:41;;;;;;;19.17;12.10;;;;;;;;;;5092379;28;20028;-72
2021/11/26 07:44:06;;;;;;;14.97;10.93;;;;;;;;;;5091956;28;20060;-72
2021/11/26 07:46:32;;;;;;;17.63;12.20;;;;;;;;;;5075566;28;20067;-72
2021/11/26 07:48:57;;;;;;;17.20;11.60;;;;;;;;;;5092418;28;20030;-72
2021/11/26 07:51:23;;;;;;;18.67;11.03;;;;;;;;;;5085887;28;20025;-72
2021/11/26 07:53:48;;;;;;;15.33;10.27;;;;;;;;;;5080932;28;20377;-72
2021/11/26 07:56:13;;;;;;;18.13;11.77;;;;;;;;;;5073172;28;20392;-71
2021/11/26 07:58:39;;;;;;;18.30;11.47;;;;;;;;;;5080725;28;20067;-72
2021/11/26 08:01:04;;;;;;;17.87;11.37;;;;;;;;;;5076217;28;20579;-72
2021/11/26 08:03:29;;;;;;;17.97;11.13;;;;;;;;;;5073215;28;20035;-72
2021/11/26 08:05:56;;;;;;;15.50;10.40;;;;;;;;;;5073768;28;20400;-72
2021/11/26 08:08:21;;;;;;;14.43;10.50;;;;;;;;;;5082392;28;20024;-72
2021/11/26 08:10:46;;;;;;;14.47;9.77;;;;;;;;;;5085476;28;20025;-72
2021/11/26 08:13:12;;;;;;;13.37;10.13;;;;;;;;;;5071523;28;20016;-71
2021/11/26 08:15:37;;;;;;;14.03;10.00;;;;;;;;;;5088579;28;20027;-71
2021/11/26 08:18:04;;;;;;;16.23;10.27;;;;;;;;;;5092107;28;20073;-71
2021/11/26 08:20:29;;;;;;;13.50;9.77;;;;;;;;;;5075620;28;20387;-71
2021/11/26 08:22:55;;;;;;;13.47;9.27;;;;;;;;;;5087061;28;20012;-71
2021/11/26 08:25:22;;;;;;;14.80;9.80;;;;;;;;;;5064123;28;20055;-71
2021/11/26 08:27:48;;;;;;;12.80;8.97;;;;;;;;;;5078525;28;20477;-71
2021/11/26 08:30:13;;;;;;;13.07;9.60;;;;;;;;;;5086893;28;20020;-72
2021/11/26 08:32:39;;;;;;;13.00;9.63;;;;;;;;;;5081653;28;20044;-71
2021/11/26 08:35:05;;;;;;;10.75;8.35;;;;;;;;;;5091045;28;20024;-71
2021/11/26 08:37:30;;;;;;;12.33;8.53;;;;;;;;;;5071561;28;20091;-72
2021/11/26 08:39:56;;;;;;;11.70;8.63;;;;;;;;;;5072973;28;20021;-71
2021/11/26 08:42:22;;;;;;;12.37;9.33;;;;;;;;;;5093370;28;20111;-71
2021/11/26 08:44:47;;;;;;;14.23;9.70;;;;;;;;;;5092276;28;20016;-72
2021/11/26 08:47:12;;;;;;;13.82;9.32;;;;;;;;;;5090968;28;20141;-71
2021/11/26 08:49:37;;;;;;;12.57;8.07;;;;;;;;;;5091221;28;20020;-72
2021/11/26 08:52:03;;;;;;;11.47;9.10;;;;;;;;;;5074045;28;20087;-71
2021/11/26 08:54:28;;;;;;;13.43;8.27;;;;;;;;;;5087088;28;20032;-70
2021/11/26 08:56:56;;;;;;;12.67;8.23;;;;;;;;;;5089812;28;20047;-71
2021/11/26 08:59:24;;;;;;;11.95;7.72;;;;;;;;;;5073889;28;20086;-71
2021/11/26 09:01:50;;;;;;;13.02;8.10;;;;;;;;;;5075076;28;20016;-71
2021/11/26 09:04:15;;;;;;;12.63;7.88;;;;;;;;;;5090658;28;20038;-71
2021/11/26 09:06:41;;;;;;;12.13;8.15;;;;;;;;;;5090835;28;20111;-71
2021/11/26 09:09:06;;;;;;;11.00;8.07;;;;;;;;;;5091261;28;20044;-71
2021/11/26 09:11:32;;;;;;;10.75;7.50;;;;;;;;;;5079553;28;20096;-71
2021/11/26 09:13:57;;;;;;;11.02;7.68;;;;;;;;;;5070698;28;20030;-71
2021/11/26 09:16:22;;;;;;;11.05;8.30;;;;;;;;;;5088953;28;20541;-71
2021/11/26 09:18:48;;;;;;;12.10;7.82;;;;;;;;;;5079112;28;20024;-71
2021/11/26 09:21:14;;;;;;;10.00;7.45;;;;;;;;;;5090675;28;20107;-71
2021/11/26 09:23:40;;;;;;;11.15;7.93;;;;;;;;;;5080338;28;20065;-71
2021/11/26 09:26:05;;;;;;;10.43;7.82;;;;;;;;;;5084865;28;20498;-71
2021/11/26 09:28:30;;;;;;;10.70;8.02;;;;;;;;;;5080995;28;20090;-71
2021/11/26 09:30:56;;;;;;;11.07;7.45;;;;;;;;;;5079994;28;20023;-71
2021/11/26 09:33:21;;;;;;;10.52;7.65;;;;;;;;;;5074415;28;20117;-71
2021/11/26 09:35:47;;;;;;;10.15;7.82;;;;;;;;;;5090719;28;20032;-72
2021/11/26 09:38:12;;;;;;;12.35;7.47;;;;;;;;;;5091679;28;20103;-72
2021/11/26 09:40:38;;;;;;;12.63;7.53;;;;;;;;;;5091834;28;20475;-72
2021/11/26 09:43:05;;;;;;;11.13;6.63;;;;;;;;;;5091790;28;20024;-71
2021/11/26 09:45:32;;;;;;;9.00;6.90;;;;;;;;;;5083395;28;20074;-72
2021/11/26 09:47:58;;;;;;;8.52;6.60;;;;;;;;;;5091524;28;20057;-72
2021/11/26 09:50:25;;;;;;;9.60;6.85;;;;;;;;;;5089613;28;20046;-72
2021/11/26 09:52:50;;;;;;;12.20;7.88;;;;;;;;;;5082101;28;20024;-72
2021/11/26 09:55:18;;;;;;;11.98;7.47;;;;;;;;;;5085514;28;20023;-72
2021/11/26 09:57:43;;;;;;;8.52;6.65;;;;;;;;;;5083687;28;20025;-72
2021/11/26 10:00:10;;;;;;;10.27;6.93;;;;;;;;;;5076062;28;20024;-72
2021/11/26 10:02:35;;;;;;;12.30;7.30;;;;;;;;;;5075676;28;20028;-72
2021/11/26 10:05:03;;;;;;;10.25;7.03;;;;;;;;;;5085550;28;20020;-72
2021/11/26 10:07:28;;;;;;;11.20;7.55;;;;;;;;;;5094062;28;20113;-72
2021/11/26 10:09:54;;;;;;;9.82;6.85;;;;;;;;;;5090663;28;20467;-72
2021/11/26 10:12:20;;;;;;;9.73;6.20;;;;;;;;;;5087886;28;20063;-72
2021/11/26 10:14:47;;;;;;;8.85;5.95;;;;;;;;;;5083356;28;20024;-72
2021/11/26 10:17:21;;;;;;;7.82;5.85;;;;;;;;;;5089768;28;20020;-72
2021/11/26 10:19:47;;;;;;;7.70;5.90;;;;;;;;;;5092167;28;20020;-72
2021/11/26 10:22:17;;;;;;;9.80;5.97;;;;;;;;;;5090168;28;20427;-72
2021/11/26 10:24:43;;;;;;;8.80;6.57;;;;;;;;;;5082944;28;20016;-72
2021/11/26 10:27:08;;;;;;;8.68;5.63;;;;;;;;;;5089406;28;20484;-72
2021/11/26 10:29:35;;;;;;;7.32;5.60;;;;;;;;;;5090834;28;20062;-71
2021/11/26 10:32:02;;;;;;;7.18;4.57;;;;;;;;;;5090149;28;20546;-71
2021/11/26 10:34:27;;;;;;;6.63;4.82;;;;;;;;;;5088775;28;20503;-72
2021/11/26 10:36:52;;;;;;;8.98;4.80;;;;;;;;;;5092660;28;20016;-72
2021/11/26 10:39:20;;;;;;;6.07;4.75;;;;;;;;;;5096012;28;20499;-72
2021/11/26 10:41:49;;;;;;;6.93;5.05;;;;;;;;;;5093520;28;20028;-71
2021/11/26 10:44:18;;;;;;;6.38;4.65;;;;;;;;;;5092354;28;20024;-71
2021/11/26 10:46:49;;;;;;;5.88;4.55;;;;;;;;;;5084481;28;20040;-71
2021/11/26 10:52:21;;;;;;;6.45;4.25;;;;;;;;;;5111339;28;20035;-72
2021/11/26 11:00:31;;;;;;;4.72;3.70;;;;;;;;;;5048018;28;20029;-71
2021/11/26 11:02:58;;;;;;;7.20;3.65;;;;;;;;;;5052117;28;20036;-72
2021/11/26 11:05:23;;;;;;;5.53;3.05;;;;;;;;;;5046612;28;20052;-72
2021/11/26 11:07:50;;;;;;;5.40;3.70;;;;;;;;;;5041052;28;20520;-72
2021/11/26 11:10:30;;;;;;;4.70;2.70;;;;;;;;;;5034142;28;20018;-72
2021/11/26 11:12:57;;;;;;;4.85;3.08;;;;;;;;;;5049819;28;20108;-72
2021/11/26 11:15:22;;;;;;;4.18;2.80;;;;;;;;;;5049756;28;20037;-72
2021/11/26 11:17:49;;;;;;;4.22;3.22;;;;;;;;;;5050281;28;20432;-72
2021/11/26 11:20:18;;;;;;;4.63;3.00;;;;;;;;;;5038359;28;20021;-72
2021/11/26 11:22:44;;;;;;;5.43;3.05;;;;;;;;;;5040823;28;20038;-72
2021/11/26 11:25:11;;;;;;;4.30;2.90;;;;;;;;;;5027607;28;20035;-72
2021/11/26 11:27:37;;;;;;;4.47;3.10;;;;;;;;;;5050397;28;20465;-72
2021/11/26 11:30:04;;;;;;;4.57;3.25;;;;;;;;;;5033928;28;20124;-71
2021/11/26 11:32:29;;;;;;;2.65;2.17;;;;;;;;;;5051001;28;20057;-71
2021/11/26 11:34:55;;;;;;;5.05;2.97;;;;;;;;;;5052226;28;20044;-71
2021/11/26 11:37:28;;;;;;;5.07;3.22;;;;;;;;;;5092309;28;20063;-72
2021/11/26 11:39:54;;;;;;;4.47;2.90;;;;;;;;;;5092344;28;20031;-71
2021/11/26 11:42:35;;;;;;;4.30;2.70;;;;;;;;;;5093642;28;20081;-71
2021/11/26 11:45:07;;;;;;;3.20;2.55;;;;;;;;;;5092944;28;20024;-72
2021/11/26 11:47:32;;;;;;;4.60;2.78;;;;;;;;;;5080338;28;20052;-72
2021/11/26 11:50:13;;;;;;;4.55;3.15;;;;;;;;;;5085064;28;20063;-72
2021/11/26 11:52:40;;;;;;;3.85;2.40;;;;;;;;;;5091745;28;20063;-72
2021/11/26 11:55:15;;;;;;;13.32;3.22;;;;;;;;;;5082613;28;20543;-72
2021/11/26 11:57:41;;;;;;;4.55;2.30;;;;;;;;;;5088612;28;20016;-72
2021/11/26 12:00:13;;;;;;;4.10;2.80;;;;;;;;;;5091808;28;20476;-72
2021/11/26 12:02:39;;;;;;;4.50;3.00;;;;;;;;;;5093487;28;20016;-71
2021/11/26 12:05:05;;;;;;;5.28;3.30;;;;;;;;;;5093088;28;20020;-71
2021/11/26 12:07:31;;;;;;;5.03;3.13;;;;;;;;;;5084722;28;20423;-72
2021/11/26 12:10:08;;;;;;;5.25;3.20;;;;;;;;;;5092711;28;20065;-72
2021/11/26 12:12:54;;;;;;;4.50;3.13;;;;;;;;;;5073357;28;20043;-72
2021/11/26 12:15:22;;;;;;;6.32;3.75;;;;;;;;;;5087756;28;20020;-72
2021/11/26 12:17:55;;;;;;;5.35;3.50;;;;;;;;;;5090213;28;20185;-72
2021/11/26 12:20:22;;;;;;;6.85;4.03;;;;;;;;;;5093407;28;20055;-72
2021/11/26 12:22:54;;;;;;;8.30;5.05;;;;;;;;;;5072241;28;20099;-72
2021/11/26 12:25:33;;;;;;;6.53;5.30;;;;;;;;;;5085832;28;20397;-72
2021/11/26 12:28:01;;;;;;;7.55;5.65;;;;;;;;;;5086182;28;20013;-72
2021/11/26 12:30:26;;;;;;;9.13;5.43;;;;;;;;;;5087523;28;20107;-72
2021/11/26 12:32:51;;;;;;;7.20;5.05;;;;;;;;;;5081095;28;20455;-72
2021/11/26 12:35:17;;;;;;;6.80;5.07;;;;;;;;;;5080917;28;20023;-72
2021/11/26 12:37:44;;;;;;;8.25;4.88;;;;;;;;;;5083527;28;20032;-72
2021/11/26 12:40:11;;;;;;;5.50;4.22;;;;;;;;;;5072452;28;20528;-72
2021/11/26 12:42:36;;;;;;;8.65;5.05;;;;;;;;;;5089771;28;20047;-72
2021/11/26 12:45:13;;;;;;;7.60;4.72;;;;;;;;;;5091295;28;20458;-72
2021/11/26 12:47:54;;;;;;;8.43;4.47;;;;;;;;;;5079658;28;20058;-72
2021/11/26 12:53:08;;;;;;;5.47;3.97;;;;;;;;;;5069550;28;20490;-72
2021/11/26 12:55:34;;;;;;;7.22;5.00;;;;;;;;;;5070716;28;20095;-71
2021/11/26 12:58:00;;;;;;;7.05;4.63;;;;;;;;;;5089919;28;20165;-71
2021/11/26 13:00:25;;;;;;;7.63;4.85;;;;;;;;;;5076158;28;20056;-71
2021/11/26 13:02:50;;;;;;;7.47;5.00;;;;;;;;;;5082425;28;20369;-72
2021/11/26 13:05:17;;;;;;;6.78;4.82;;;;;;;;;;5075263;28;20032;-71
2021/11/26 13:07:43;;;;;;;6.55;3.95;;;;;;;;;;5090448;28;20105;-70
2021/11/26 13:10:14;;;;;;;5.57;4.07;;;;;;;;;;5075866;28;20325;-72
2021/11/26 13:12:40;;;;;;;5.63;3.78;;;;;;;;;;5072955;28;20020;-70
2021/11/26 13:15:10;;;;;;;4.72;2.92;;;;;;;;;;5083184;28;20027;-71
2021/11/26 13:17:40;;;;;;;3.63;2.47;;;;;;;;;;5102719;28;20020;-70
2021/11/26 13:20:09;;;;;;;4.65;2.30;;;;;;;;;;5080021;28;20397;-69
2021/11/26 13:22:45;;;;;;;4.35;2.28;;;;;;;;;;5071622;28;20119;-69
2021/11/26 13:25:11;;;;;;;3.63;1.42;;;;;;;;;;5071821;28;20091;-70
2021/11/26 13:28:09;;;;;;;2.38;1.20;;;;;;;;;;5087182;28;20476;-70
2021/11/26 13:30:37;;;;;;;1.63;1.17;;;;;;;;;;5045191;28;20033;-71
2021/11/26 13:33:22;;;;;;;3.55;1.58;;;;;;;;;;5087732;28;20126;-71
2021/11/26 13:35:48;;;;;;;3.00;1.50;;;;;;;;;;5090063;28;20475;-71
2021/11/26 13:38:27;;;;;;;2.72;1.40;;;;;;;;;;5092525;28;20055;-71
2021/11/26 13:40:54;;;;;;;3.83;1.60;;;;;;;;;;5082731;28;20017;-71
2021/11/26 13:43:38;;;;;;;1.67;1.05;;;;;;;;;;5071556;28;20024;-69
2021/11/26 13:46:05;;;;;;;1.38;0.90;;;;;;;;;;5072499;28;20016;-71
2021/11/26 13:48:34;;;;;;;2.00;1.00;;;;;;;;;;5089312;28;20016;-69
2021/11/26 13:50:59;;;;;;;2.85;1.30;;;;;;;;;;5085880;28;20052;-70
2021/11/26 13:53:25;;;;;;;2.45;1.15;;;;;;;;;;5071309;28;20499;-70
2021/11/26 13:55:51;;;;;;;3.42;1.42;;;;;;;;;;5073202;28;20032;-71
2021/11/26 13:58:16;;;;;;;2.55;1.52;;;;;;;;;;5080429;28;20020;-70
2021/11/26 14:00:43;;;;;;;2.95;1.58;;;;;;;;;;5090696;28;20119;-70
2021/11/26 14:03:08;;;;;;;2.90;1.60;;;;;;;;;;5093545;28;20023;-70
2021/11/26 14:05:35;;;;;;;2.97;1.90;;;;;;;;;;5097864;28;20027;-70
2021/11/26 14:08:01;;;;;;;5.18;2.35;;;;;;;;;;5086636;28;20461;-70
2021/11/26 14:10:26;;;;;;;2.67;1.80;;;;;;;;;;5075241;28;20020;-70
2021/11/26 14:12:56;;;;;;;3.47;1.85;;;;;;;;;;5075782;28;20034;-71
2021/11/26 14:15:21;;;;;;;2.75;2.00;;;;;;;;;;5092417;28;20036;-70
2021/11/26 14:17:47;;;;;;;3.30;1.80;;;;;;;;;;5095932;28;20020;-71
2021/11/26 14:20:12;;;;;;;4.47;2.53;;;;;;;;;;5091140;28;20063;-70
2021/11/26 14:22:41;;;;;;;3.17;2.00;;;;;;;;;;5086182;28;20111;-70
2021/11/26 14:25:07;;;;;;;5.20;2.70;;;;;;;;;;5078207;28;20032;-70
2021/11/26 14:27:39;;;;;;;3.40;2.38;;;;;;;;;;5093873;28;20027;-71
2021/11/26 14:30:07;;;;;;;4.10;2.70;;;;;;;;;;5093334;28;20024;-70
2021/11/26 14:32:33;;;;;;;3.63;2.30;;;;;;;;;;5092563;28;20047;-70
2021/11/26 14:35:06;;;;;;;3.72;2.53;;;;;;;;;;5084566;28;20033;-69